Terminal Aerodrome Forecast
Issued by NWS Jackson, MS

Home | Current Version | Previous Version | Text Only | Print | Product List | Glossary On
Versions: 1 2 3 4 5 6 7 8 9 10 11 12 13 14 15 16 17 18 19 20 21 22 23 24 25 26
000
FTUS44 KJAN 051737
TAFJAN
TAF
KJAN 051737Z 0518/0618 20004KT 5SM -SHRA VCTS SCT030 BKN050CB
     FM051900 20008KT P6SM VCTS BKN040CB
     FM060000 19005KT P6SM BKN050
     FM061300 20006KT P6SM SCT050=

USA.gov is the U.S. government's official web portal to all federal, state and local government web resources and services.